createdAt,value
2023-06-11T00:01:36.297Z,19.41
2023-06-11T00:05:04.433Z,19.52
2023-06-11T00:08:22.400Z,19.60
2023-06-11T00:11:37.877Z,19.76
2023-06-11T00:15:02.412Z,19.59
2023-06-11T00:18:11.812Z,19.73
2023-06-11T00:21:32.377Z,19.77
2023-06-11T00:25:24.615Z,19.59
2023-06-11T00:28:51.646Z,19.62
2023-06-11T00:31:47.663Z,19.49
2023-06-11T00:34:34.676Z,19.59
2023-06-11T00:38:20.554Z,19.49
2023-06-11T00:42:01.857Z,19.19
2023-06-11T00:45:09.308Z,19.19
2023-06-11T00:47:38.353Z,19.34
2023-06-11T00:50:12.732Z,19.35
2023-06-11T00:53:05.828Z,19.39
2023-06-11T00:55:35.918Z,19.31
2023-06-11T00:58:03.213Z,19.42
2023-06-11T01:01:11.683Z,19.29
2023-06-11T01:03:55.085Z,19.34
2023-06-11T01:06:35.146Z,19.04
2023-06-11T01:09:11.588Z,19.07
2023-06-11T01:12:03.884Z,19.18
2023-06-11T01:15:13.800Z,19.10
2023-06-11T01:18:59.672Z,19.15
2023-06-11T01:22:35.948Z,18.91
2023-06-11T01:26:00.197Z,18.76
2023-06-11T01:28:48.477Z,18.68
2023-06-11T01:31:40.071Z,18.61
2023-06-11T01:35:05.125Z,18.83
2023-06-11T01:38:00.840Z,18.63
2023-06-11T01:41:30.783Z,18.83
2023-06-11T01:44:29.413Z,18.93
2023-06-11T01:48:01.088Z,18.75
2023-06-11T01:50:37.566Z,18.82
2023-06-11T01:53:41.055Z,18.86
2023-06-11T01:56:11.792Z,18.85
2023-06-11T01:58:38.773Z,18.90
2023-06-11T02:01:16.460Z,18.87
2023-06-11T02:03:44.121Z,18.74
2023-06-11T02:06:15.237Z,18.52
2023-06-11T02:08:48.740Z,18.66
2023-06-11T02:11:30.224Z,18.64
2023-06-11T02:14:13.446Z,18.85
2023-06-11T02:17:03.308Z,18.96
2023-06-11T02:20:18.561Z,18.96
2023-06-11T02:23:06.027Z,18.80
2023-06-11T02:26:05.514Z,18.67
2023-06-11T02:28:35.393Z,18.71
2023-06-11T02:31:22.409Z,18.52
2023-06-11T02:33:54.928Z,18.45
2023-06-11T02:36:59.397Z,18.66
2023-06-11T02:39:26.660Z,18.54
2023-06-11T02:42:14.525Z,18.66
2023-06-11T02:45:09.959Z,18.66
2023-06-11T02:48:03.494Z,18.46
2023-06-11T02:51:47.691Z,18.44
2023-06-11T02:55:19.624Z,18.07
2023-06-11T02:58:00.534Z,18.31
2023-06-11T03:01:18.468Z,18.08
2023-06-11T03:04:02.288Z,18.35
2023-06-11T03:06:42.096Z,18.43
2023-06-11T03:09:19.212Z,18.50
2023-06-11T03:11:50.241Z,18.25
2023-06-11T03:14:21.603Z,18.23
2023-06-11T03:16:51.584Z,18.30
2023-06-11T03:19:43.218Z,18.55
2023-06-11T03:22:54.673Z,18.71
2023-06-11T03:26:07.489Z,18.80
2023-06-11T03:28:55.309Z,18.59
2023-06-11T03:31:52.505Z,18.54
2023-06-11T03:34:53.383Z,18.58
2023-06-11T03:38:35.358Z,18.68
2023-06-11T03:41:59.220Z,18.39
2023-06-11T03:44:45.319Z,18.72
2023-06-11T03:47:25.351Z,18.86
2023-06-11T03:50:13.626Z,18.90
2023-06-11T03:53:12.789Z,18.96
2023-06-11T03:56:25.963Z,18.91
2023-06-11T03:59:28.540Z,18.57
2023-06-11T04:02:31.322Z,18.34
2023-06-11T04:05:53.652Z,18.30
2023-06-11T04:09:41.445Z,18.41
2023-06-11T04:12:33.432Z,18.06
2023-06-11T04:15:13.544Z,18.19
2023-06-11T04:18:30.425Z,18.21
2023-06-11T04:21:33.832Z,18.29
2023-06-11T04:24:10.386Z,18.19
2023-06-11T04:26:51.633Z,18.14
2023-06-11T04:29:19.133Z,18.37
2023-06-11T04:31:50.740Z,18.50
2023-06-11T04:34:21.385Z,18.05
2023-06-11T04:36:53.974Z,17.87
2023-06-11T04:39:24.383Z,17.77
2023-06-11T04:41:51.979Z,18.10
2023-06-11T04:44:42.649Z,18.28
2023-06-11T04:47:23.256Z,18.34
2023-06-11T04:49:57.389Z,18.37
2023-06-11T04:52:39.421Z,18.36
2023-06-11T04:55:23.718Z,18.25
2023-06-11T04:57:55.134Z,18.39
2023-06-11T05:00:46.929Z,18.52
2023-06-11T05:03:29.885Z,18.41
2023-06-11T05:06:02.591Z,18.41
2023-06-11T05:08:29.475Z,18.19
2023-06-11T05:11:01.132Z,18.13
2023-06-11T05:13:31.848Z,18.26
2023-06-11T05:16:09.776Z,18.35
2023-06-11T05:19:02.854Z,18.64
2023-06-11T05:21:30.234Z,18.60
2023-06-11T05:24:19.079Z,18.50
2023-06-11T05:26:58.985Z,18.37
2023-06-11T05:30:34.457Z,18.63
2023-06-11T05:33:33.377Z,19.03
2023-06-11T05:36:03.165Z,19.38
2023-06-11T05:38:30.333Z,19.93
2023-06-11T05:41:54.165Z,20.23
2023-06-11T05:45:21.688Z,19.27
2023-06-11T05:48:01.772Z,18.50
2023-06-11T05:50:33.929Z,18.34
2023-06-11T05:53:03.961Z,18.94
2023-06-11T05:56:01.196Z,19.79
2023-06-11T05:59:08.798Z,20.42
2023-06-11T06:02:21.617Z,20.13
2023-06-11T06:05:48.835Z,19.56
2023-06-11T06:09:08.228Z,19.24
2023-06-11T06:11:56.979Z,19.24
2023-06-11T06:15:25.689Z,19.29
2023-06-11T06:18:40.517Z,18.83
2023-06-11T06:21:54.172Z,18.75
2023-06-11T06:25:27.380Z,19.63
2023-06-11T06:28:36.054Z,20.20
2023-06-11T06:31:31.532Z,20.48
2023-06-11T06:34:34.519Z,20.38
2023-06-11T06:37:21.694Z,20.45
2023-06-11T06:40:42.260Z,20.59
2023-06-11T06:43:31.024Z,21.29
2023-06-11T06:46:58.992Z,22.38
2023-06-11T06:50:28.686Z,23.20
2023-06-11T06:54:18.451Z,24.15
2023-06-11T06:58:15.351Z,25.66
2023-06-11T07:01:50.271Z,25.11
2023-06-11T07:05:43.985Z,24.60
2023-06-11T07:09:25.627Z,24.03
2023-06-11T07:12:47.425Z,23.87
2023-06-11T07:16:21.045Z,23.27
2023-06-11T07:20:21.736Z,22.95
2023-06-11T07:24:17.211Z,23.11
2023-06-11T07:27:48.951Z,22.93
2023-06-11T07:31:24.669Z,22.37
2023-06-11T07:35:23.331Z,22.38
2023-06-11T07:38:46.373Z,22.05
2023-06-11T07:42:11.252Z,21.69
2023-06-11T07:45:50.146Z,22.09
2023-06-11T07:49:58.166Z,23.17
2023-06-11T07:53:50.278Z,23.55
2023-06-11T07:57:41.006Z,24.56
2023-06-11T08:01:28.773Z,24.65
2023-06-11T08:05:09.722Z,23.90
2023-06-11T08:08:39.882Z,23.10
2023-06-11T08:12:16.949Z,23.18
2023-06-11T08:16:01.508Z,23.76
2023-06-11T08:19:57.561Z,24.52
2023-06-11T08:23:43.403Z,24.23
2023-06-11T08:27:31.582Z,23.30
2023-06-11T08:31:18.161Z,22.52
2023-06-11T08:35:17.948Z,22.63
2023-06-11T08:39:18.454Z,22.76
2023-06-11T08:43:26.017Z,23.98
2023-06-11T08:47:09.060Z,24.20
2023-06-11T08:50:53.071Z,23.50
2023-06-11T08:54:25.137Z,23.08
2023-06-11T08:58:33.304Z,22.71
2023-06-11T09:02:34.192Z,22.28
2023-06-11T09:06:27.278Z,21.99
2023-06-11T09:10:16.328Z,22.09
2023-06-11T09:14:17.020Z,22.08
2023-06-11T09:18:15.062Z,22.23
2023-06-11T09:21:42.859Z,22.45
2023-06-11T09:25:03.039Z,22.52
2023-06-11T09:28:10.513Z,22.26
2023-06-11T09:32:32.609Z,22.38
2023-06-11T09:36:38.187Z,21.34
2023-06-11T09:40:11.958Z,20.91
2023-06-11T09:43:51.462Z,20.41
2023-06-11T09:47:23.992Z,20.25
2023-06-11T09:50:53.270Z,20.27
2023-06-11T09:54:09.041Z,20.13
2023-06-11T09:58:05.754Z,19.86
2023-06-11T10:01:42.682Z,19.86
2023-06-11T10:05:21.004Z,20.12
2023-06-11T10:08:55.817Z,20.60
2023-06-11T10:12:44.182Z,20.57
2023-06-11T10:16:31.601Z,20.79
2023-06-11T10:19:59.147Z,20.81
2023-06-11T10:23:25.616Z,20.79
2023-06-11T10:27:05.877Z,20.23
2023-06-11T10:30:52.797Z,20.13
2023-06-11T10:34:53.872Z,20.44
2023-06-11T10:38:22.244Z,20.30
2023-06-11T10:41:12.378Z,20.19
2023-06-11T10:45:00.245Z,19.82
2023-06-11T10:48:33.554Z,19.62
2023-06-11T10:51:39.278Z,19.86
2023-06-11T10:55:16.574Z,19.83
2023-06-11T10:59:17.418Z,20.04
2023-06-11T11:02:50.951Z,20.07
2023-06-11T11:06:18.930Z,19.69
2023-06-11T11:10:06.327Z,19.26
2023-06-11T11:14:01.181Z,18.92
2023-06-11T11:17:29.908Z,18.66
2023-06-11T11:21:01.577Z,18.49
2023-06-11T11:24:22.105Z,18.47
2023-06-11T11:27:31.016Z,18.36
2023-06-11T11:30:56.119Z,18.32
2023-06-11T11:34:16.780Z,19.27
2023-06-11T11:38:23.553Z,19.92
2023-06-11T11:42:30.578Z,19.33
2023-06-11T11:46:19.574Z,18.86
2023-06-11T11:49:29.534Z,18.92
2023-06-11T11:53:43.501Z,19.05
2023-06-11T11:57:28.209Z,19.15
2023-06-11T12:01:35.065Z,19.58
2023-06-11T12:05:43.367Z,19.42
2023-06-11T12:09:53.007Z,19.05
2023-06-11T12:13:51.014Z,18.84
2023-06-11T12:17:38.970Z,18.64
2023-06-11T12:21:29.619Z,18.54
2023-06-11T12:24:47.194Z,19.56
2023-06-11T12:28:23.575Z,20.26
2023-06-11T12:32:25.796Z,19.87
2023-06-11T12:36:34.179Z,19.74
2023-06-11T12:40:11.861Z,19.70
2023-06-11T12:43:07.098Z,19.64
2023-06-11T12:46:08.615Z,19.58
2023-06-11T12:50:21.071Z,19.67
2023-06-11T12:53:52.046Z,19.77
2023-06-11T12:57:16.079Z,19.92
2023-06-11T13:01:17.186Z,20.28
2023-06-11T13:04:42.599Z,20.62
2023-06-11T13:08:30.455Z,20.41
2023-06-11T13:11:40.421Z,19.81
2023-06-11T13:14:13.306Z,19.35
2023-06-11T13:16:45.757Z,18.99
2023-06-11T13:20:06.844Z,18.80
2023-06-11T13:23:16.254Z,18.72
2023-06-11T13:27:05.381Z,18.82
2023-06-11T13:30:56.401Z,18.86
2023-06-11T13:34:13.307Z,18.80
2023-06-11T13:37:03.823Z,18.87
2023-06-11T13:40:13.560Z,18.76
2023-06-11T13:44:06.621Z,18.81
2023-06-11T13:48:01.908Z,18.84
2023-06-11T13:51:16.544Z,19.08
2023-06-11T13:54:35.075Z,19.41
2023-06-11T13:57:56.798Z,19.89
2023-06-11T14:01:26.498Z,19.99
2023-06-11T14:05:35.117Z,19.95
2023-06-11T14:09:14.696Z,19.78
2023-06-11T14:13:04.574Z,19.67
2023-06-11T14:17:12.882Z,19.77
2023-06-11T14:20:45.931Z,19.72
2023-06-11T14:24:53.910Z,19.58
2023-06-11T14:28:02.636Z,19.40
2023-06-11T14:32:00.379Z,19.46
2023-06-11T14:35:51.675Z,19.53
2023-06-11T14:39:49.286Z,19.47
2023-06-11T14:43:46.641Z,19.40
2023-06-11T14:47:42.281Z,19.40
2023-06-11T14:51:48.974Z,19.37
2023-06-11T14:55:02.415Z,19.32
2023-06-11T14:58:54.876Z,19.36
2023-06-11T15:02:35.891Z,19.24
2023-06-11T15:06:18.134Z,18.86
2023-06-11T15:10:15.086Z,18.71
2023-06-11T15:13:15.997Z,18.67
2023-06-11T15:17:37.535Z,18.56
2023-06-11T15:20:46.929Z,18.58
2023-06-11T15:24:35.525Z,18.62
2023-06-11T15:28:13.431Z,18.59
2023-06-11T15:32:10.332Z,18.56
2023-06-11T15:35:34.228Z,18.57
2023-06-11T15:39:05.326Z,18.64
2023-06-11T15:43:15.392Z,18.61
2023-06-11T15:47:23.533Z,18.51
2023-06-11T15:51:11.703Z,18.42
2023-06-11T15:54:56.434Z,18.46
2023-06-11T15:59:04.765Z,18.27
2023-06-11T16:03:06.949Z,18.24
2023-06-11T16:06:51.143Z,18.60
2023-06-11T16:10:28.072Z,19.46
2023-06-11T16:14:28.801Z,18.94
2023-06-11T16:18:25.544Z,18.47
2023-06-11T16:22:22.522Z,18.20
2023-06-11T16:25:41.403Z,17.98
2023-06-11T16:28:55.686Z,17.88
2023-06-11T16:32:10.326Z,18.63
2023-06-11T16:35:20.756Z,19.31
2023-06-11T16:39:30.324Z,18.86
2023-06-11T16:43:21.939Z,18.42
2023-06-11T16:45:51.509Z,18.15
2023-06-11T16:49:41.848Z,18.02
2023-06-11T16:52:41.046Z,17.94
2023-06-11T16:56:18.977Z,17.81
2023-06-11T16:59:51.066Z,18.13
2023-06-11T17:03:19.012Z,19.43
2023-06-11T17:06:49.687Z,19.80
2023-06-11T17:09:39.051Z,19.17
2023-06-11T17:12:17.513Z,18.80
2023-06-11T17:15:40.162Z,18.61
2023-06-11T17:19:46.751Z,18.38
2023-06-11T17:23:45.926Z,18.16
2023-06-11T17:27:20.241Z,18.08
2023-06-11T17:30:51.638Z,17.98
2023-06-11T17:34:21.453Z,17.94
2023-06-11T17:37:36.255Z,17.92
2023-06-11T17:41:48.023Z,18.04
2023-06-11T17:45:37.853Z,19.23
2023-06-11T17:48:31.361Z,19.99
2023-06-11T17:51:20.108Z,19.72
2023-06-11T17:55:13.358Z,19.08
2023-06-11T17:58:45.948Z,18.48
2023-06-11T18:02:03.465Z,18.12
2023-06-11T18:04:41.356Z,17.89
2023-06-11T18:08:37.872Z,17.79
2023-06-11T18:11:59.615Z,18.70
2023-06-11T18:15:33.022Z,19.47
2023-06-11T18:19:34.973Z,19.32
2023-06-11T18:23:17.221Z,18.51
2023-06-11T18:26:27.220Z,17.93
2023-06-11T18:29:34.444Z,17.58
2023-06-11T18:33:06.136Z,17.37
2023-06-11T18:36:35.167Z,17.26
2023-06-11T18:40:35.169Z,18.18
2023-06-11T18:43:23.060Z,19.14
2023-06-11T18:46:04.877Z,19.53
2023-06-11T18:48:50.528Z,19.66
2023-06-11T18:51:56.680Z,18.96
2023-06-11T18:54:29.634Z,18.36
2023-06-11T18:57:57.903Z,17.92
2023-06-11T19:00:51.651Z,17.43
2023-06-11T19:04:45.594Z,17.15
2023-06-11T19:07:47.046Z,16.81
2023-06-11T19:10:49.275Z,16.60
2023-06-11T19:13:19.405Z,16.41
2023-06-11T19:16:09.794Z,16.36
2023-06-11T19:18:50.335Z,17.12
2023-06-11T19:22:46.076Z,17.98
2023-06-11T19:26:36.332Z,18.72
2023-06-11T19:30:01.991Z,18.95
2023-06-11T19:32:54.981Z,18.12
2023-06-11T19:36:38.894Z,17.45
2023-06-11T19:40:28.869Z,16.87
2023-06-11T19:43:46.414Z,16.42
2023-06-11T19:47:21.823Z,16.12
2023-06-11T19:50:46.483Z,15.86
2023-06-11T19:54:50.412Z,15.63
2023-06-11T19:58:19.542Z,16.54
2023-06-11T20:01:24.834Z,17.48
2023-06-11T20:04:08.709Z,17.97
2023-06-11T20:07:08.947Z,18.28
2023-06-11T20:11:08.235Z,18.57
2023-06-11T20:14:39.156Z,18.84
2023-06-11T20:18:04.291Z,18.99
2023-06-11T20:20:47.056Z,18.39
2023-06-11T20:24:27.499Z,17.46
2023-06-11T20:27:12.684Z,16.61
2023-06-11T20:30:54.313Z,16.09
2023-06-11T20:33:30.243Z,15.61
2023-06-11T20:36:25.207Z,15.30
2023-06-11T20:39:03.743Z,15.01
2023-06-11T20:41:46.880Z,14.71
2023-06-11T20:44:57.405Z,14.47
2023-06-11T20:47:56.884Z,14.17
2023-06-11T20:50:46.036Z,14.31
2023-06-11T20:53:33.240Z,15.23
2023-06-11T20:56:05.048Z,15.84
2023-06-11T20:58:36.320Z,16.24
2023-06-11T21:01:03.518Z,16.49
2023-06-11T21:03:33.276Z,16.68
2023-06-11T21:06:03.678Z,16.85
2023-06-11T21:09:13.039Z,17.00
2023-06-11T21:11:43.045Z,17.15
2023-06-11T21:14:26.773Z,17.27
2023-06-11T21:16:56.583Z,17.33
2023-06-11T21:19:23.654Z,17.37
2023-06-11T21:21:50.810Z,17.39
2023-06-11T21:24:20.572Z,16.99
2023-06-11T21:26:47.837Z,16.17
2023-06-11T21:29:18.014Z,15.48
2023-06-11T21:31:48.821Z,14.95
2023-06-11T21:34:19.258Z,14.48
2023-06-11T21:36:48.258Z,14.12
2023-06-11T21:39:20.946Z,13.78
2023-06-11T21:41:55.515Z,13.47
2023-06-11T21:44:31.800Z,13.77
2023-06-11T21:47:05.227Z,14.53
2023-06-11T21:49:59.687Z,15.10
2023-06-11T21:52:30.086Z,15.44
2023-06-11T21:55:02.899Z,15.68
2023-06-11T21:57:30.145Z,15.88
2023-06-11T21:59:57.196Z,16.03
2023-06-11T22:02:50.818Z,16.14
2023-06-11T22:05:38.406Z,16.27
2023-06-11T22:08:13.607Z,16.18
2023-06-11T22:10:50.178Z,15.39
2023-06-11T22:13:48.463Z,14.61
2023-06-11T22:16:16.845Z,13.95
2023-06-11T22:18:52.656Z,13.47
2023-06-11T22:21:22.394Z,13.09
2023-06-11T22:23:53.720Z,12.77
2023-06-11T22:26:28.376Z,12.50
2023-06-11T22:28:57.885Z,12.23
2023-06-11T22:31:25.128Z,12.00
2023-06-11T22:33:55.087Z,11.79
2023-06-11T22:36:29.699Z,12.16
2023-06-11T22:38:59.479Z,12.96
2023-06-11T22:41:29.466Z,13.58
2023-06-11T22:43:59.319Z,13.98
2023-06-11T22:46:36.786Z,14.29
2023-06-11T22:49:35.182Z,14.52
2023-06-11T22:52:08.199Z,14.74
2023-06-11T22:54:38.571Z,14.91
2023-06-11T22:57:08.606Z,15.05
2023-06-11T23:00:06.913Z,15.16
2023-06-11T23:03:04.912Z,15.31
2023-06-11T23:05:39.942Z,15.41
2023-06-11T23:08:07.025Z,15.45
2023-06-11T23:10:39.487Z,15.44
2023-06-11T23:13:08.947Z,14.77
2023-06-11T23:15:42.564Z,13.99
2023-06-11T23:18:12.946Z,13.35
2023-06-11T23:21:06.484Z,12.84
2023-06-11T23:23:41.883Z,12.27
2023-06-11T23:26:53.393Z,11.85
2023-06-11T23:29:41.043Z,12.41
2023-06-11T23:32:11.749Z,13.11
2023-06-11T23:35:14.764Z,13.63
2023-06-11T23:37:58.502Z,14.02
2023-06-11T23:40:28.716Z,14.27
2023-06-11T23:43:01.629Z,14.47
2023-06-11T23:45:34.795Z,14.65
2023-06-11T23:48:38.110Z,14.82
2023-06-11T23:51:20.247Z,14.96
2023-06-11T23:54:16.405Z,14.87
2023-06-11T23:56:48.629Z,14.24
2023-06-11T23:59:20.952Z,13.31
